createdAt,value
2019-05-14T00:01:03.271Z,58.40
2019-05-14T00:03:31.157Z,58.53
2019-05-14T00:05:58.016Z,58.51
2019-05-14T00:08:24.858Z,58.52
2019-05-14T00:10:52.184Z,58.48
2019-05-14T00:13:21.270Z,58.39
2019-05-14T00:15:47.640Z,58.53
2019-05-14T00:18:14.370Z,58.49
2019-05-14T00:20:41.939Z,58.78
2019-05-14T00:23:08.924Z,58.66
2019-05-14T00:25:35.683Z,58.69
2019-05-14T00:28:02.485Z,58.70
2019-05-14T00:30:31.055Z,58.74
2019-05-14T00:32:57.831Z,58.62
2019-05-14T00:35:24.634Z,58.56
2019-05-14T00:37:52.107Z,58.47
2019-05-14T00:40:18.979Z,58.47
2019-05-14T00:42:45.793Z,58.52
2019-05-14T00:45:12.719Z,58.81
2019-05-14T00:47:41.581Z,58.92
2019-05-14T00:50:08.638Z,58.92
2019-05-14T00:52:35.385Z,58.76
2019-05-14T00:55:05.520Z,58.67
2019-05-14T00:57:32.353Z,58.50
2019-05-14T01:00:01.032Z,58.57
2019-05-14T01:02:27.610Z,58.66
2019-05-14T01:04:54.417Z,58.58
2019-05-14T01:07:21.305Z,58.52
2019-05-14T01:09:48.395Z,58.45
2019-05-14T01:12:15.305Z,58.49
2019-05-14T01:14:42.610Z,58.46
2019-05-14T01:17:11.304Z,58.62
2019-05-14T01:19:38.154Z,58.87
2019-05-14T01:22:04.880Z,58.89
2019-05-14T01:24:32.267Z,58.97
2019-05-14T01:27:01.447Z,58.88
2019-05-14T01:29:27.810Z,58.80
2019-05-14T01:31:54.569Z,58.84
2019-05-14T01:34:21.672Z,59.05
2019-05-14T01:36:48.495Z,59.36
2019-05-14T01:39:15.256Z,59.43
2019-05-14T01:41:42.511Z,59.29
2019-05-14T01:44:11.803Z,59.28
2019-05-14T01:46:37.936Z,59.20
2019-05-14T01:49:04.716Z,59.22
2019-05-14T01:51:31.780Z,59.32
2019-05-14T01:53:58.683Z,59.31
2019-05-14T01:56:25.487Z,59.50
2019-05-14T01:58:52.409Z,59.47
2019-05-14T02:01:21.689Z,59.44
2019-05-14T02:03:47.813Z,59.51
2019-05-14T02:06:14.572Z,59.70
2019-05-14T02:08:41.497Z,59.90
2019-05-14T02:11:08.361Z,59.92
2019-05-14T02:13:35.119Z,59.86
2019-05-14T02:16:02.480Z,59.82
2019-05-14T02:18:31.132Z,59.83
2019-05-14T02:20:58.088Z,59.93
2019-05-14T02:23:24.847Z,59.72
2019-05-14T02:25:51.922Z,59.46
2019-05-14T02:28:18.785Z,59.34
2019-05-14T02:30:56.088Z,59.57
2019-05-14T02:33:14.155Z,59.50
2019-05-14T02:35:40.945Z,59.55
2019-05-14T02:38:10.317Z,59.69
2019-05-14T02:40:36.261Z,59.77
2019-05-14T02:43:03.219Z,59.73
2019-05-14T02:45:30.527Z,59.70
2019-05-14T02:48:00.382Z,59.61
2019-05-14T02:50:29.273Z,59.92
2019-05-14T02:52:54.470Z,59.95
2019-05-14T02:55:21.280Z,59.96
2019-05-14T02:57:50.083Z,60.18
2019-05-14T03:00:19.334Z,60.05
2019-05-14T03:02:45.394Z,59.91
2019-05-14T03:05:12.299Z,59.73
2019-05-14T03:07:39.710Z,59.82
2019-05-14T03:10:09.894Z,59.81
2019-05-14T03:12:39.303Z,59.86
2019-05-14T03:15:09.618Z,59.73
2019-05-14T03:17:40.531Z,59.86
2019-05-14T03:20:09.103Z,60.20
2019-05-14T03:22:46.994Z,60.28
2019-05-14T03:25:05.706Z,60.11
2019-05-14T03:27:32.424Z,60.28
2019-05-14T03:29:59.142Z,60.13
2019-05-14T03:32:26.112Z,59.57
2019-05-14T03:34:54.290Z,59.85
2019-05-14T03:37:23.571Z,59.91
2019-05-14T03:39:49.860Z,59.99
2019-05-14T03:42:19.428Z,59.73
2019-05-14T03:44:45.172Z,59.78
2019-05-14T03:47:11.960Z,59.79
2019-05-14T03:49:39.797Z,60.00
2019-05-14T03:52:09.581Z,59.39
2019-05-14T03:54:35.740Z,58.90
2019-05-14T03:57:02.445Z,59.17
2019-05-14T03:59:29.475Z,59.39
2019-05-14T04:01:59.392Z,58.89
2019-05-14T04:04:24.998Z,59.13
2019-05-14T04:06:53.879Z,59.44
2019-05-14T04:09:21.958Z,59.67
2019-05-14T04:11:52.248Z,59.66
2019-05-14T04:14:23.429Z,59.91
2019-05-14T04:17:05.265Z,60.09
2019-05-14T04:19:22.975Z,59.49
2019-05-14T04:21:49.685Z,59.20
2019-05-14T04:24:20.458Z,59.59
2019-05-14T04:26:58.437Z,59.85
2019-05-14T04:29:19.829Z,59.80
2019-05-14T04:31:50.365Z,59.81
2019-05-14T04:34:19.318Z,59.95
2019-05-14T04:36:44.758Z,59.83
2019-05-14T04:39:11.663Z,59.93
2019-05-14T04:41:39.384Z,60.05
2019-05-14T04:44:09.546Z,60.10
2019-05-14T04:46:35.277Z,59.82
2019-05-14T04:49:02.023Z,59.77
2019-05-14T04:51:30.329Z,59.95
2019-05-14T04:53:59.896Z,59.98
2019-05-14T04:56:25.911Z,59.96
2019-05-14T04:58:52.651Z,59.75
2019-05-14T05:01:20.932Z,59.97
2019-05-14T05:03:50.368Z,60.03
2019-05-14T05:06:19.201Z,59.96
2019-05-14T05:08:45.098Z,59.91
2019-05-14T05:11:11.850Z,60.05
2019-05-14T05:13:39.694Z,60.13
2019-05-14T05:16:09.636Z,60.13
2019-05-14T05:18:35.406Z,60.23
2019-05-14T05:21:02.146Z,60.22
2019-05-14T05:23:28.934Z,60.25
2019-05-14T05:25:55.651Z,60.33
2019-05-14T05:28:22.432Z,60.49
2019-05-14T05:30:49.275Z,60.63
2019-05-14T05:33:16.066Z,60.44
2019-05-14T05:35:42.827Z,60.38
2019-05-14T05:38:09.661Z,60.36
2019-05-14T05:40:38.982Z,60.39
2019-05-14T05:43:04.988Z,60.34
2019-05-14T05:45:31.862Z,60.35
2019-05-14T05:48:01.629Z,60.18
2019-05-14T05:50:28.752Z,60.05
2019-05-14T05:52:55.770Z,59.93
2019-05-14T05:55:24.233Z,59.69
2019-05-14T05:57:50.975Z,59.29
2019-05-14T06:00:34.340Z,58.82
2019-05-14T06:03:01.102Z,58.32
2019-05-14T06:05:29.248Z,58.23
2019-05-14T06:07:58.872Z,58.04
2019-05-14T06:10:24.745Z,57.46
2019-05-14T06:12:51.461Z,56.17
2019-05-14T06:15:19.223Z,56.04
2019-05-14T06:17:46.128Z,56.09
2019-05-14T06:20:13.195Z,56.08
2019-05-14T06:22:40.021Z,55.61
2019-05-14T06:25:10.955Z,55.02
2019-05-14T06:27:37.901Z,53.83
2019-05-14T06:30:09.071Z,53.34
2019-05-14T06:32:38.536Z,53.18
2019-05-14T06:35:08.596Z,52.26
2019-05-14T06:37:34.880Z,52.42
2019-05-14T06:40:04.040Z,52.02
2019-05-14T06:42:30.773Z,52.24
2019-05-14T06:44:58.600Z,50.87
2019-05-14T06:47:25.514Z,50.33
2019-05-14T06:49:52.275Z,50.87
2019-05-14T06:52:19.085Z,48.67
2019-05-14T06:54:45.861Z,47.74
2019-05-14T06:57:12.602Z,44.35
2019-05-14T06:59:39.469Z,43.10
2019-05-14T07:02:08.497Z,40.52
2019-05-14T07:04:35.097Z,42.08
2019-05-14T07:07:01.923Z,42.94
2019-05-14T07:09:29.071Z,41.77
2019-05-14T07:11:58.321Z,39.89
2019-05-14T07:14:24.625Z,39.59
2019-05-14T07:16:51.369Z,38.82
2019-05-14T07:19:19.135Z,37.03
2019-05-14T07:21:48.952Z,37.16
2019-05-14T07:24:14.780Z,36.78
2019-05-14T07:26:41.516Z,36.38
2019-05-14T07:29:11.455Z,36.36
2019-05-14T07:31:38.496Z,34.96
2019-05-14T07:34:05.467Z,35.89
2019-05-14T07:36:32.274Z,35.91
2019-05-14T07:39:00.177Z,34.17
2019-05-14T07:41:28.443Z,34.14
2019-05-14T07:43:55.631Z,34.58
2019-05-14T07:46:22.360Z,33.63
2019-05-14T07:49:03.462Z,32.64
2019-05-14T07:51:19.029Z,32.30
2019-05-14T07:53:48.525Z,33.04
2019-05-14T07:56:14.518Z,31.92
2019-05-14T07:58:41.283Z,31.18
2019-05-14T08:01:09.454Z,30.27
2019-05-14T08:03:38.285Z,30.66
2019-05-14T08:06:05.124Z,30.15
2019-05-14T08:08:31.861Z,31.02
2019-05-14T08:10:59.175Z,30.46
2019-05-14T08:13:28.254Z,30.81
2019-05-14T08:15:54.790Z,31.30
2019-05-14T08:18:21.517Z,29.99
2019-05-14T08:20:48.747Z,31.24
2019-05-14T08:23:18.244Z,29.80
2019-05-14T08:25:44.150Z,31.05
2019-05-14T08:28:10.973Z,29.61
2019-05-14T08:30:38.972Z,30.35
2019-05-14T08:33:06.015Z,30.58
2019-05-14T08:35:34.063Z,29.95
2019-05-14T08:38:07.654Z,30.31
2019-05-14T08:40:29.939Z,32.60
2019-05-14T08:42:58.381Z,29.87
2019-05-14T08:45:25.142Z,28.64
2019-05-14T08:47:51.881Z,28.96
2019-05-14T08:50:19.045Z,28.62
2019-05-14T08:52:48.156Z,29.71
2019-05-14T08:55:14.532Z,29.09
2019-05-14T08:57:41.409Z,30.32
2019-05-14T09:00:13.941Z,29.22
2019-05-14T09:02:39.106Z,30.20
2019-05-14T09:05:09.886Z,29.81
2019-05-14T09:07:34.706Z,31.29
2019-05-14T09:10:01.459Z,31.52
2019-05-14T09:12:28.331Z,30.29
2019-05-14T09:14:55.066Z,28.93
2019-05-14T09:17:21.838Z,31.91
2019-05-14T09:20:02.142Z,28.61
2019-05-14T09:22:18.500Z,30.63
2019-05-14T09:24:45.670Z,30.25
2019-05-14T09:27:12.496Z,29.13
2019-05-14T09:29:39.589Z,28.84
2019-05-14T09:32:06.395Z,29.14
2019-05-14T09:34:34.106Z,27.84
2019-05-14T09:37:00.827Z,28.43
2019-05-14T09:39:29.150Z,29.09
2019-05-14T09:41:57.997Z,28.79
2019-05-14T09:44:24.707Z,29.75
2019-05-14T09:46:51.445Z,30.24
2019-05-14T09:49:18.776Z,27.74
2019-05-14T09:51:45.684Z,28.32
2019-05-14T09:54:12.447Z,29.87
2019-05-14T09:56:39.662Z,29.24
2019-05-14T09:59:06.451Z,30.28
2019-05-14T10:01:33.188Z,31.42
2019-05-14T10:04:00.025Z,31.58
2019-05-14T10:06:28.466Z,30.59
2019-05-14T10:08:55.318Z,29.95
2019-05-14T10:11:22.202Z,30.47
2019-05-14T10:13:48.932Z,30.42
2019-05-14T10:16:18.570Z,30.38
2019-05-14T10:18:44.257Z,31.57
2019-05-14T10:21:11.024Z,30.33
2019-05-14T10:23:38.973Z,31.81
2019-05-14T10:26:05.906Z,30.66
2019-05-14T10:28:32.625Z,27.68
2019-05-14T10:31:00.609Z,29.29
2019-05-14T10:33:28.737Z,27.23
2019-05-14T10:35:55.702Z,29.17
2019-05-14T10:38:22.459Z,32.27
2019-05-14T10:40:49.333Z,27.81
2019-05-14T10:43:16.094Z,28.36
2019-05-14T10:45:42.822Z,28.28
2019-05-14T10:48:09.868Z,28.62
2019-05-14T10:50:55.165Z,29.40
2019-05-14T10:53:08.962Z,27.37
2019-05-14T10:55:35.827Z,27.92
2019-05-14T10:58:02.614Z,29.11
2019-05-14T11:00:29.345Z,29.96
2019-05-14T11:02:56.199Z,27.90
2019-05-14T11:05:22.965Z,28.51
2019-05-14T11:07:49.725Z,28.11
2019-05-14T11:10:19.417Z,27.80
2019-05-14T11:12:45.225Z,28.19
2019-05-14T11:15:13.998Z,27.24
2019-05-14T11:17:40.956Z,25.97
2019-05-14T11:20:08.161Z,25.69
2019-05-14T11:22:35.094Z,27.14
2019-05-14T11:25:04.189Z,28.26
2019-05-14T11:27:30.939Z,30.68
2019-05-14T11:29:58.651Z,27.96
2019-05-14T11:32:25.570Z,30.54
2019-05-14T11:34:52.493Z,27.43
2019-05-14T11:37:19.250Z,28.61
2019-05-14T11:39:46.050Z,27.44
2019-05-14T11:42:12.835Z,24.88
2019-05-14T11:44:39.581Z,24.87
2019-05-14T11:47:08.753Z,25.23
2019-05-14T11:49:35.003Z,24.64
2019-05-14T11:52:07.651Z,26.01
2019-05-14T11:54:30.470Z,24.81
2019-05-14T11:56:58.932Z,24.01
2019-05-14T11:59:28.043Z,23.72
2019-05-14T12:01:55.112Z,25.32
2019-05-14T12:04:22.075Z,26.53
2019-05-14T12:06:48.805Z,26.76
2019-05-14T12:09:15.586Z,25.27
2019-05-14T12:11:42.336Z,25.29
2019-05-14T12:14:09.141Z,24.83
2019-05-14T12:16:35.884Z,22.15
2019-05-14T12:19:02.752Z,22.71
2019-05-14T12:21:29.506Z,24.74
2019-05-14T12:24:03.067Z,24.01
2019-05-14T12:26:24.839Z,24.69
2019-05-14T12:28:51.577Z,25.48
2019-05-14T12:31:18.398Z,24.42
2019-05-14T12:33:45.131Z,23.65
2019-05-14T12:36:11.958Z,24.16
2019-05-14T12:38:38.753Z,25.67
2019-05-14T12:41:05.491Z,25.98
2019-05-14T12:43:32.267Z,25.24
2019-05-14T12:45:59.423Z,26.59
2019-05-14T12:48:29.527Z,27.02
2019-05-14T12:50:55.106Z,27.58
2019-05-14T12:53:21.903Z,28.55
2019-05-14T12:55:48.829Z,27.61
2019-05-14T12:58:15.885Z,28.61
2019-05-14T13:00:42.706Z,27.56
2019-05-14T13:03:09.444Z,25.95
2019-05-14T13:05:36.191Z,26.11
2019-05-14T13:08:03.085Z,25.48
2019-05-14T13:10:29.925Z,26.28
2019-05-14T13:12:58.662Z,25.90
2019-05-14T13:15:25.342Z,26.32
2019-05-14T13:17:52.109Z,25.00
2019-05-14T13:20:18.860Z,26.31
2019-05-14T13:22:46.643Z,24.37
2019-05-14T13:25:14.321Z,23.92
2019-05-14T13:27:41.045Z,23.65
2019-05-14T13:30:09.165Z,25.33
2019-05-14T13:32:39.063Z,23.22
2019-05-14T13:35:09.653Z,23.99
2019-05-14T13:37:34.843Z,24.86
2019-05-14T13:40:03.623Z,24.95
2019-05-14T13:42:30.371Z,25.79
2019-05-14T13:44:58.481Z,24.92
2019-05-14T13:47:25.325Z,23.13
2019-05-14T13:49:52.077Z,24.68
2019-05-14T13:52:18.939Z,23.81
2019-05-14T13:54:45.703Z,24.42
2019-05-14T13:57:12.440Z,24.04
2019-05-14T13:59:43.887Z,26.02
2019-05-14T14:02:09.827Z,24.25
2019-05-14T14:04:38.171Z,23.03
2019-05-14T14:07:04.924Z,22.64
2019-05-14T14:09:31.829Z,22.79
2019-05-14T14:11:58.828Z,23.96
2019-05-14T14:14:25.658Z,22.46
2019-05-14T14:16:52.399Z,23.45
2019-05-14T14:19:19.151Z,24.15
2019-05-14T14:21:49.206Z,23.44
2019-05-14T14:24:14.476Z,23.25
2019-05-14T14:26:41.209Z,24.12
2019-05-14T14:29:09.197Z,24.80
2019-05-14T14:31:36.473Z,23.41
2019-05-14T14:34:03.421Z,25.07
2019-05-14T14:36:30.317Z,26.48
2019-05-14T14:38:58.845Z,25.18
2019-05-14T14:41:28.413Z,26.13
2019-05-14T14:43:55.488Z,28.05
2019-05-14T14:46:22.317Z,28.74
2019-05-14T14:48:49.670Z,28.56
2019-05-14T14:51:19.350Z,28.08
2019-05-14T14:53:58.436Z,27.78
2019-05-14T14:56:14.581Z,28.60
2019-05-14T14:58:41.425Z,27.86
2019-05-14T15:01:08.766Z,28.90
2019-05-14T15:03:36.185Z,28.06
2019-05-14T15:06:03.036Z,27.31
2019-05-14T15:08:29.771Z,26.16
2019-05-14T15:10:59.109Z,27.35
2019-05-14T15:13:25.156Z,28.41
2019-05-14T15:15:51.887Z,28.53
2019-05-14T15:18:18.885Z,29.47
2019-05-14T15:20:48.919Z,30.48
2019-05-14T15:23:15.026Z,29.57
2019-05-14T15:25:41.969Z,29.96
2019-05-14T15:28:10.709Z,31.13
2019-05-14T15:30:39.573Z,31.26
2019-05-14T15:33:08.976Z,31.43
2019-05-14T15:35:34.706Z,31.52
2019-05-14T15:38:01.465Z,29.76
2019-05-14T15:40:28.901Z,28.99
2019-05-14T15:42:58.967Z,29.74
2019-05-14T15:45:24.581Z,31.49
2019-05-14T15:47:51.900Z,31.08
2019-05-14T15:50:20.104Z,31.00
2019-05-14T15:52:48.687Z,31.42
2019-05-14T15:55:23.175Z,31.54
2019-05-14T15:57:49.944Z,31.62
2019-05-14T16:00:19.560Z,32.24
2019-05-14T16:02:45.375Z,31.30
2019-05-14T16:05:12.289Z,31.97
2019-05-14T16:07:39.336Z,32.56
2019-05-14T16:10:08.588Z,32.89
2019-05-14T16:12:36.048Z,33.12
2019-05-14T16:15:08.371Z,34.25
2019-05-14T16:17:34.439Z,35.47
2019-05-14T16:20:20.969Z,35.42
2019-05-14T16:22:47.730Z,32.73
2019-05-14T16:25:15.694Z,33.67
2019-05-14T16:27:44.008Z,33.61
2019-05-14T16:30:11.120Z,33.03
2019-05-14T16:32:39.423Z,31.69
2019-05-14T16:35:08.888Z,31.76
2019-05-14T16:37:35.830Z,32.96
2019-05-14T16:40:05.431Z,33.10
2019-05-14T16:42:32.215Z,31.95
2019-05-14T16:44:58.936Z,29.99
2019-05-14T16:47:28.024Z,30.38
2019-05-14T16:49:54.257Z,30.93
2019-05-14T16:52:22.274Z,30.54
2019-05-14T16:54:49.058Z,31.47
2019-05-14T16:57:18.415Z,30.10
2019-05-14T16:59:44.314Z,29.90
2019-05-14T17:02:11.042Z,29.80
2019-05-14T17:04:38.777Z,28.52
2019-05-14T17:07:05.647Z,30.02
2019-05-14T17:09:32.367Z,28.24
2019-05-14T17:11:59.176Z,28.75
2019-05-14T17:14:25.915Z,27.97
2019-05-14T17:16:53.277Z,28.78
2019-05-14T17:19:20.169Z,28.43
2019-05-14T17:21:48.974Z,28.73
2019-05-14T17:24:15.569Z,29.13
2019-05-14T17:26:42.373Z,29.33
2019-05-14T17:29:09.083Z,29.63
2019-05-14T17:31:39.117Z,30.30
2019-05-14T17:34:08.602Z,30.06
2019-05-14T17:36:34.902Z,29.87
2019-05-14T17:39:01.657Z,30.38
2019-05-14T17:41:29.043Z,29.73
2019-05-14T17:43:55.797Z,30.09
2019-05-14T17:46:22.515Z,30.43
2019-05-14T17:48:49.320Z,31.14
2019-05-14T17:51:18.114Z,31.11
2019-05-14T17:53:44.608Z,31.33
2019-05-14T17:56:11.531Z,31.59
2019-05-14T17:58:38.567Z,31.72
2019-05-14T18:01:05.520Z,32.83
2019-05-14T18:03:32.377Z,33.37
2019-05-14T18:05:59.133Z,33.34
2019-05-14T18:08:25.930Z,33.42
2019-05-14T18:10:53.247Z,33.87
2019-05-14T18:13:20.012Z,34.03
2019-05-14T18:15:48.849Z,34.00
2019-05-14T18:18:15.305Z,34.58
2019-05-14T18:20:42.034Z,35.56
2019-05-14T18:23:11.752Z,35.68
2019-05-14T18:25:38.910Z,35.13
2019-05-14T18:28:09.066Z,34.49
2019-05-14T18:30:34.410Z,34.04
2019-05-14T18:33:01.177Z,33.96
2019-05-14T18:35:29.458Z,34.00
2019-05-14T18:37:56.501Z,34.63
2019-05-14T18:40:23.389Z,35.20
2019-05-14T18:42:50.139Z,35.77
2019-05-14T18:45:19.007Z,35.80
2019-05-14T18:47:48.327Z,35.97
2019-05-14T18:50:14.395Z,36.48
2019-05-14T18:52:41.156Z,36.46
2019-05-14T18:55:08.601Z,36.80
2019-05-14T18:57:35.407Z,36.52
2019-05-14T19:00:05.711Z,37.73
2019-05-14T19:02:33.005Z,38.50
2019-05-14T19:04:59.718Z,38.42
2019-05-14T19:07:28.745Z,37.68
2019-05-14T19:09:55.156Z,37.72
2019-05-14T19:12:21.977Z,38.02
2019-05-14T19:14:49.228Z,38.02
2019-05-14T19:17:18.543Z,37.91
2019-05-14T19:19:44.843Z,37.81
2019-05-14T19:22:11.562Z,37.83
2019-05-14T19:24:38.439Z,38.07
2019-05-14T19:27:05.636Z,38.34
2019-05-14T19:29:32.345Z,38.60
2019-05-14T19:31:59.200Z,38.45
2019-05-14T19:34:25.933Z,38.75
2019-05-14T19:36:52.652Z,38.69
2019-05-14T19:39:19.471Z,39.00
2019-05-14T19:41:48.271Z,39.07
2019-05-14T19:44:14.819Z,39.66
2019-05-14T19:46:41.629Z,39.24
2019-05-14T19:49:08.404Z,39.26
2019-05-14T19:51:35.120Z,39.29
2019-05-14T19:54:01.958Z,39.69
2019-05-14T19:56:29.311Z,40.03
2019-05-14T19:58:56.243Z,39.93
2019-05-14T20:01:23.028Z,40.11
2019-05-14T20:03:49.748Z,40.42
2019-05-14T20:06:18.698Z,40.85
2019-05-14T20:08:45.145Z,41.03
2019-05-14T20:11:11.879Z,41.43
2019-05-14T20:13:39.293Z,41.83
2019-05-14T20:16:08.495Z,42.02
2019-05-14T20:18:34.840Z,42.68
2019-05-14T20:21:01.574Z,42.62
2019-05-14T20:23:29.128Z,43.05
2019-05-14T20:25:56.026Z,43.25
2019-05-14T20:28:23.237Z,43.38
2019-05-14T20:30:50.114Z,43.59
2019-05-14T20:33:18.913Z,43.65
2019-05-14T20:35:45.416Z,44.22
2019-05-14T20:38:12.230Z,44.89
2019-05-14T20:40:39.011Z,44.71
2019-05-14T20:43:05.731Z,44.85
2019-05-14T20:45:32.534Z,45.04
2019-05-14T20:47:59.266Z,45.84
2019-05-14T20:50:26.011Z,45.51
2019-05-14T20:52:52.779Z,45.53
2019-05-14T20:55:19.533Z,45.45
2019-05-14T20:57:48.738Z,46.03
2019-05-14T21:00:18.225Z,45.81
2019-05-14T21:02:45.004Z,45.68
2019-05-14T21:05:13.736Z,45.52
2019-05-14T21:07:40.481Z,45.88
2019-05-14T21:10:07.830Z,46.14
2019-05-14T21:12:34.911Z,45.47
2019-05-14T21:15:02.138Z,45.92
2019-05-14T21:17:28.853Z,45.72
2019-05-14T21:19:55.597Z,45.66
2019-05-14T21:22:22.397Z,45.85
2019-05-14T21:24:53.002Z,45.59
2019-05-14T21:27:18.706Z,45.61
2019-05-14T21:29:45.687Z,45.55
2019-05-14T21:32:12.430Z,45.79
2019-05-14T21:34:39.196Z,45.62
2019-05-14T21:37:05.983Z,45.82
2019-05-14T21:39:32.765Z,45.81
2019-05-14T21:41:59.530Z,45.80
2019-05-14T21:44:28.320Z,45.72
2019-05-14T21:46:54.837Z,45.83
2019-05-14T21:49:21.594Z,45.78
2019-05-14T21:51:51.314Z,45.95
2019-05-14T21:54:18.954Z,46.02
2019-05-14T21:56:45.482Z,45.98
2019-05-14T21:59:12.303Z,45.88
2019-05-14T22:01:39.561Z,45.78
2019-05-14T22:04:08.727Z,45.56
2019-05-14T22:06:35.148Z,45.94
2019-05-14T22:09:01.901Z,45.51
2019-05-14T22:11:28.731Z,46.20
2019-05-14T22:13:55.514Z,46.44
2019-05-14T22:16:22.254Z,46.35
2019-05-14T22:18:49.005Z,46.30
2019-05-14T22:21:17.983Z,45.85
2019-05-14T22:23:44.390Z,44.79
2019-05-14T22:26:11.140Z,44.32
2019-05-14T22:28:37.957Z,44.29
2019-05-14T22:31:04.767Z,44.03
2019-05-14T22:33:31.480Z,44.54
2019-05-14T22:35:58.268Z,45.72
2019-05-14T22:38:24.998Z,44.98
2019-05-14T22:40:51.731Z,44.34
2019-05-14T22:43:18.543Z,44.21
2019-05-14T22:45:45.284Z,44.07
2019-05-14T22:48:12.029Z,43.73
2019-05-14T22:50:41.452Z,43.34
2019-05-14T22:53:09.367Z,43.33
2019-05-14T22:55:38.113Z,43.69
2019-05-14T22:58:04.616Z,43.43
2019-05-14T23:00:31.373Z,43.94
2019-05-14T23:02:58.105Z,44.27
2019-05-14T23:05:24.897Z,43.51
2019-05-14T23:07:51.652Z,43.31
2019-05-14T23:10:18.503Z,43.30
2019-05-14T23:12:45.303Z,43.25
2019-05-14T23:15:12.448Z,43.67
2019-05-14T23:17:39.181Z,43.61
2019-05-14T23:20:06.276Z,43.78
2019-05-14T23:22:33.009Z,43.51
2019-05-14T23:24:59.737Z,43.07
2019-05-14T23:27:26.599Z,43.30
2019-05-14T23:29:53.330Z,43.19
2019-05-14T23:32:20.365Z,43.76
2019-05-14T23:34:48.822Z,43.50
2019-05-14T23:37:18.121Z,43.45
2019-05-14T23:39:45.117Z,43.38
2019-05-14T23:42:12.077Z,43.59
2019-05-14T23:44:38.930Z,43.91
2019-05-14T23:47:05.657Z,43.66
2019-05-14T23:49:32.493Z,43.63
2019-05-14T23:51:59.243Z,43.57
2019-05-14T23:54:25.986Z,43.55
2019-05-14T23:56:52.756Z,43.33
2019-05-14T23:59:19.485Z,43.39
